Time;durP1;ratioP1;P1;durP2;ratioP2;P2;SDS_P1;SDS_P2;PMS_P1;PMS_P2;Temp;Humidity;BMP_temperature;BMP_pressure;BME280_temperature;BME280_humidity;BME280_pressure;Samples;Min_cycle;Max_cycle;Signal;HPM_P1;HPM_P2
2023/05/01 00:01:52;;;;;;;5.97;4.03;;;8.70;99.90;;;;;;5156369;27;20258;-75
2023/05/01 00:04:21;;;;;;;5.80;4.60;;;8.70;99.90;;;;;;5156792;27;20629;-73
2023/05/01 00:06:49;;;;;;;5.97;4.50;;;8.70;99.90;;;;;;5156845;27;20201;-75
2023/05/01 00:09:18;;;;;;;5.03;4.53;;;8.60;99.90;;;;;;5135591;27;20213;-74
2023/05/01 00:11:47;;;;;;;6.47;4.17;;;8.50;99.90;;;;;;5135956;27;20213;-73
2023/05/01 00:14:15;;;;;;;5.13;4.43;;;8.50;99.90;;;;;;5135564;27;20244;-75
2023/05/01 00:16:45;;;;;;;6.20;4.50;;;8.40;99.90;;;;;;5134838;27;20205;-76
2023/05/01 00:19:17;;;;;;;5.93;4.47;;;8.40;99.90;;;;;;5135475;27;20300;-76
2023/05/01 00:21:46;;;;;;;7.03;4.20;;;8.40;99.90;;;;;;5135557;27;20196;-75
2023/05/01 00:24:15;;;;;;;5.63;4.50;;;8.30;99.90;;;;;;5135413;27;20657;-73
2023/05/01 00:26:43;;;;;;;5.90;4.43;;;8.30;99.90;;;;;;5134613;27;20308;-77
2023/05/01 00:29:13;;;;;;;6.53;5.00;;;8.30;99.90;;;;;;5143825;27;20628;-76
2023/05/01 00:31:42;;;;;;;6.10;4.70;;;8.20;99.90;;;;;;5135477;27;20217;-76
2023/05/01 00:34:10;;;;;;;6.70;4.50;;;8.20;99.90;;;;;;5135011;27;20205;-75
2023/05/01 00:36:38;;;;;;;5.57;4.60;;;8.20;99.90;;;;;;5134463;27;20210;-74
2023/05/01 00:39:07;;;;;;;6.70;4.63;;;8.20;99.90;;;;;;5135020;27;20216;-74
2023/05/01 00:41:35;;;;;;;7.23;5.07;;;8.20;99.90;;;;;;5135313;27;20687;-74
2023/05/01 00:44:03;;;;;;;6.00;4.77;;;8.20;99.90;;;;;;5134536;27;20209;-75
2023/05/01 00:46:34;;;;;;;5.50;4.77;;;8.20;99.90;;;;;;5134952;27;20311;-74
2023/05/01 00:49:03;;;;;;;6.73;5.10;;;8.20;99.90;;;;;;5134925;27;20317;-75
2023/05/01 00:51:31;;;;;;;7.97;4.97;;;8.30;99.90;;;;;;5135048;27;20248;-77
2023/05/01 00:54:00;;;;;;;6.90;5.07;;;8.30;99.90;;;;;;5139649;27;20232;-77
2023/05/01 00:56:28;;;;;;;6.77;4.87;;;8.30;99.90;;;;;;5155172;27;20288;-76
2023/05/01 00:58:57;;;;;;;7.37;4.83;;;8.30;99.90;;;;;;5155589;27;20287;-75
2023/05/01 01:01:25;;;;;;;6.20;4.80;;;8.30;99.90;;;;;;5153012;27;20201;-74
2023/05/01 01:03:55;;;;;;;5.47;4.93;;;8.30;99.90;;;;;;5134411;27;20296;-75
2023/05/01 01:06:33;;;;;;;6.00;4.70;;;8.30;99.90;;;;;;5149621;27;20307;-74
2023/05/01 01:09:13;;;;;;;5.93;4.60;;;8.30;99.90;;;;;;5153473;27;20201;-73
2023/05/01 01:11:53;;;;;;;6.43;4.67;;;8.20;99.90;;;;;;5154955;27;20709;-75
2023/05/01 01:14:27;;;;;;;5.77;5.13;;;8.20;99.90;;;;;;5155733;27;20214;-76
2023/05/01 01:17:06;;;;;;;6.43;5.13;;;8.20;99.90;;;;;;5155621;27;20184;-75
2023/05/01 01:20:16;;;;;;;9.70;5.33;;;8.10;99.90;;;;;;5138971;27;20206;-76
2023/05/01 01:22:48;;;;;;;6.20;4.97;;;8.10;99.90;;;;;;5137737;27;20220;-75
2023/05/01 01:25:56;;;;;;;6.13;5.13;;;8.10;99.90;;;;;;5139927;27;20232;-76
2023/05/01 01:28:50;;;;;;;7.73;5.10;;;8.00;99.90;;;;;;5145394;27;20367;-75
2023/05/01 01:31:22;;;;;;;9.27;5.60;;;8.00;99.90;;;;;;5155434;27;20204;-75
2023/05/01 01:34:00;;;;;;;6.53;5.43;;;7.90;99.90;;;;;;5154656;27;20292;-75
2023/05/01 01:36:43;;;;;;;6.83;5.50;;;7.90;99.90;;;;;;5146079;27;20209;-75
2023/05/01 01:39:20;;;;;;;6.77;5.50;;;7.90;99.90;;;;;;5134100;27;20300;-77
2023/05/01 01:41:51;;;;;;;7.93;5.50;;;7.90;99.90;;;;;;5133929;27;20277;-76
2023/05/01 01:44:25;;;;;;;7.17;5.60;;;7.90;99.90;;;;;;5134348;27;20254;-75
2023/05/01 01:46:54;;;;;;;7.83;5.67;;;7.90;99.90;;;;;;5147348;27;20597;-76
2023/05/01 01:49:27;;;;;;;7.93;5.70;;;7.90;99.90;;;;;;5145559;27;20236;-77
2023/05/01 01:51:56;;;;;;;6.70;5.20;;;7.90;99.90;;;;;;5133345;27;20544;-75
2023/05/01 01:54:32;;;;;;;7.03;5.37;;;7.80;99.90;;;;;;5134837;27;20693;-75
2023/05/01 01:57:03;;;;;;;6.43;5.57;;;7.80;99.90;;;;;;5154197;27;20211;-74
2023/05/01 01:59:33;;;;;;;7.50;5.20;;;7.70;99.90;;;;;;5154522;27;20199;-73
2023/05/01 02:02:03;;;;;;;6.57;5.50;;;7.60;99.90;;;;;;5153796;27;20208;-75
2023/05/01 02:04:34;;;;;;;7.90;5.97;;;7.60;99.90;;;;;;5140359;27;20197;-74
2023/05/01 02:07:04;;;;;;;6.93;5.63;;;7.50;99.90;;;;;;5133483;27;20233;-76
2023/05/01 02:09:34;;;;;;;6.53;5.87;;;7.50;99.90;;;;;;5133154;27;20304;-74
2023/05/01 02:12:05;;;;;;;7.93;5.60;;;7.40;99.90;;;;;;5134096;27;20212;-74
2023/05/01 02:14:35;;;;;;;6.40;5.70;;;7.40;99.90;;;;;;5154206;27;20204;-74
2023/05/01 02:17:04;;;;;;;6.40;5.60;;;7.50;99.90;;;;;;5154109;27;20224;-75
2023/05/01 02:19:34;;;;;;;6.43;5.60;;;7.50;99.90;;;;;;5154013;27;20646;-77
2023/05/01 02:22:04;;;;;;;6.57;5.80;;;7.50;99.90;;;;;;5144922;27;20205;-77
2023/05/01 02:24:34;;;;;;;6.47;5.80;;;7.50;99.90;;;;;;5133451;27;20252;-78
2023/05/01 02:27:08;;;;;;;6.67;5.97;;;7.50;99.90;;;;;;5133147;27;20228;-75
2023/05/01 02:29:36;;;;;;;7.70;5.60;;;7.50;99.90;;;;;;5133140;27;20594;-74
2023/05/01 02:32:04;;;;;;;6.60;5.57;;;7.40;99.90;;;;;;5132593;27;20206;-74
2023/05/01 02:34:36;;;;;;;8.00;6.00;;;7.30;99.90;;;;;;5132913;27;20306;-73
2023/05/01 02:37:06;;;;;;;6.37;5.57;;;7.30;99.90;;;;;;5133706;27;21254;-76
2023/05/01 02:39:34;;;;;;;6.67;5.60;;;7.20;99.90;;;;;;5133023;27;20527;-75
2023/05/01 02:42:03;;;;;;;7.50;5.90;;;7.20;99.90;;;;;;5132376;27;20205;-73
2023/05/01 02:44:45;;;;;;;7.37;5.93;;;7.10;99.90;;;;;;5133526;27;20209;-75
2023/05/01 02:47:17;;;;;;;6.60;5.83;;;7.10;99.90;;;;;;5132662;27;20229;-75
2023/05/01 02:49:47;;;;;;;7.33;5.83;;;7.00;99.90;;;;;;5132937;28;20210;-74
2023/05/01 02:52:18;;;;;;;6.93;5.90;;;6.90;99.90;;;;;;5132778;28;20213;-74
2023/05/01 02:54:46;;;;;;;7.03;5.93;;;6.90;99.90;;;;;;5146936;27;20217;-75
2023/05/01 02:57:16;;;;;;;7.10;6.27;;;6.80;99.90;;;;;;5132694;28;20527;-76
2023/05/01 02:59:44;;;;;;;7.23;6.40;;;6.80;99.90;;;;;;5133967;27;20681;-76
2023/05/01 03:02:12;;;;;;;7.27;6.40;;;6.70;99.90;;;;;;5136540;27;20248;-76
2023/05/01 03:04:40;;;;;;;7.17;6.10;;;6.70;99.90;;;;;;5149160;27;20577;-74
2023/05/01 03:07:10;;;;;;;7.23;6.53;;;6.70;99.90;;;;;;5157717;27;20686;-73
2023/05/01 03:09:38;;;;;;;7.40;6.23;;;6.60;99.90;;;;;;5157445;27;20208;-75
2023/05/01 03:12:06;;;;;;;7.10;6.40;;;6.50;99.90;;;;;;5156590;27;20560;-73
2023/05/01 03:14:34;;;;;;;6.90;6.20;;;6.50;99.90;;;;;;5137076;27;20216;-75
2023/05/01 03:17:02;;;;;;;7.00;6.30;;;6.50;99.90;;;;;;5137214;27;20593;-74
2023/05/01 03:19:30;;;;;;;6.70;6.00;;;6.40;99.90;;;;;;5136962;27;20572;-76
2023/05/01 03:21:58;;;;;;;8.43;6.60;;;6.40;99.90;;;;;;5135698;27;20675;-75
2023/05/01 03:24:28;;;;;;;7.73;6.67;;;6.40;99.90;;;;;;5137172;27;20254;-75
2023/05/01 03:26:56;;;;;;;7.67;6.40;;;6.30;99.90;;;;;;5136508;27;20252;-76
2023/05/01 03:29:24;;;;;;;10.20;6.50;;;6.30;99.90;;;;;;5136522;27;20300;-76
2023/05/01 03:31:52;;;;;;;7.67;5.93;;;6.30;99.90;;;;;;5135988;27;20209;-77
2023/05/01 03:34:20;;;;;;;8.40;6.90;;;6.20;99.90;;;;;;5136477;27;20205;-75
2023/05/01 03:36:48;;;;;;;10.53;7.27;;;6.20;99.90;;;;;;5136296;27;20189;-77
2023/05/01 03:39:17;;;;;;;8.67;6.63;;;6.20;99.90;;;;;;5136413;27;20205;-74
2023/05/01 03:41:46;;;;;;;9.07;7.17;;;6.20;99.90;;;;;;5136604;27;20212;-76
2023/05/01 03:44:14;;;;;;;8.30;7.43;;;6.20;99.90;;;;;;5138775;27;20209;-76
2023/05/01 03:46:43;;;;;;;8.13;6.80;;;6.20;99.90;;;;;;5135989;27;20706;-75
2023/05/01 03:49:11;;;;;;;9.30;7.97;;;6.20;99.90;;;;;;5136083;27;20682;-73
2023/05/01 03:51:39;;;;;;;7.53;6.80;;;6.10;99.90;;;;;;5155039;27;20287;-74
2023/05/01 03:54:07;;;;;;;7.83;7.03;;;6.20;99.90;;;;;;5156680;27;20208;-73
2023/05/01 03:56:35;;;;;;;9.70;6.73;;;6.20;99.90;;;;;;5156813;27;20204;-76
2023/05/01 03:59:05;;;;;;;8.37;7.20;;;6.20;99.90;;;;;;5152255;27;20304;-73
2023/05/01 04:01:33;;;;;;;9.13;7.30;;;6.20;99.90;;;;;;5136106;27;20463;-74
2023/05/01 04:04:02;;;;;;;7.70;6.90;;;6.20;99.90;;;;;;5135808;27;20205;-74
2023/05/01 04:06:30;;;;;;;7.90;6.70;;;6.30;99.90;;;;;;5136140;27;20304;-74
2023/05/01 04:08:58;;;;;;;8.13;7.07;;;6.20;99.90;;;;;;5135849;27;20518;-75
2023/05/01 04:11:26;;;;;;;9.43;7.30;;;6.30;99.90;;;;;;5134804;27;20572;-74
2023/05/01 04:13:54;;;;;;;11.83;7.43;;;6.30;99.90;;;;;;5135816;27;20207;-75
2023/05/01 04:16:24;;;;;;;9.80;7.40;;;6.30;99.90;;;;;;5135355;27;20216;-74
2023/05/01 04:18:52;;;;;;;9.60;7.30;;;6.30;99.90;;;;;;5135949;27;20194;-75
2023/05/01 04:21:20;;;;;;;9.43;7.77;;;6.40;99.90;;;;;;5135595;27;20579;-75
2023/05/01 04:23:48;;;;;;;8.47;7.20;;;6.40;99.90;;;;;;5135071;27;20215;-77
2023/05/01 04:26:16;;;;;;;10.03;7.60;;;6.50;99.90;;;;;;5150261;27;20566;-74
2023/05/01 04:28:44;;;;;;;8.10;7.20;;;6.60;99.90;;;;;;5156344;27;20222;-75
2023/05/01 04:31:13;;;;;;;7.70;6.87;;;6.70;99.90;;;;;;5155924;27;20300;-74
2023/05/01 04:33:42;;;;;;;8.40;7.50;;;6.70;99.90;;;;;;5157558;27;20221;-76
2023/05/01 04:36:10;;;;;;;8.27;7.33;;;6.70;99.90;;;;;;5139756;27;20210;-75
2023/05/01 04:38:38;;;;;;;7.80;6.80;;;6.80;99.90;;;;;;5135529;27;20210;-76
2023/05/01 04:41:06;;;;;;;8.23;6.63;;;6.90;99.90;;;;;;5135548;27;20212;-75
2023/05/01 04:43:34;;;;;;;7.73;6.70;;;7.00;99.90;;;;;;5135114;27;20337;-74
2023/05/01 04:46:03;;;;;;;10.40;7.30;;;7.10;99.90;;;;;;5135317;27;20288;-76
2023/05/01 04:48:31;;;;;;;7.47;6.30;;;7.20;99.90;;;;;;5134686;27;20321;-73
2023/05/01 04:51:02;;;;;;;8.87;6.37;;;7.20;99.90;;;;;;5143861;27;20215;-73
2023/05/01 04:53:30;;;;;;;8.23;6.90;;;7.40;99.90;;;;;;5137126;27;20212;-74
2023/05/01 04:55:58;;;;;;;7.37;6.67;;;7.40;99.90;;;;;;5134753;27;20235;-73
2023/05/01 04:58:26;;;;;;;10.40;6.90;;;7.50;99.90;;;;;;5134845;27;20205;-76
2023/05/01 05:00:54;;;;;;;7.30;5.93;;;7.60;99.90;;;;;;5135135;27;20206;-77
2023/05/01 05:03:22;;;;;;;7.90;6.50;;;7.70;99.90;;;;;;5134963;27;20232;-73
2023/05/01 05:05:51;;;;;;;7.60;6.50;;;7.80;99.90;;;;;;5134722;27;20296;-76
2023/05/01 05:08:20;;;;;;;8.17;6.80;;;7.80;99.90;;;;;;5134677;27;20316;-75
2023/05/01 05:10:48;;;;;;;7.53;6.50;;;8.00;99.90;;;;;;5134957;27;20216;-74
2023/05/01 05:13:16;;;;;;;7.43;6.53;;;8.00;99.90;;;;;;5134366;27;20243;-73
2023/05/01 05:15:45;;;;;;;7.27;6.33;;;8.20;99.90;;;;;;5134786;27;20296;-74
2023/05/01 05:18:13;;;;;;;7.27;6.53;;;8.20;99.90;;;;;;5145027;27;20194;-76
2023/05/01 05:20:41;;;;;;;7.37;6.40;;;8.40;99.90;;;;;;5134665;27;20274;-75
2023/05/01 05:23:09;;;;;;;6.53;5.93;;;8.60;99.90;;;;;;5134069;27;20675;-74
2023/05/01 05:25:38;;;;;;;8.43;6.60;;;8.70;99.90;;;;;;5134375;27;20209;-76
2023/05/01 05:28:06;;;;;;;8.83;6.83;;;8.70;99.90;;;;;;5133928;27;20663;-76
2023/05/01 05:30:35;;;;;;;8.17;6.57;;;8.60;99.90;;;;;;5134615;27;20263;-75
2023/05/01 05:33:04;;;;;;;8.03;5.87;;;8.60;99.90;;;;;;5134425;27;20201;-75
2023/05/01 05:35:32;;;;;;;9.17;6.53;;;8.80;99.90;;;;;;5134237;27;20225;-77
2023/05/01 05:38:00;;;;;;;9.80;6.27;;;8.90;99.90;;;;;;5134516;27;20201;-74
2023/05/01 05:40:28;;;;;;;7.53;6.27;;;9.00;99.90;;;;;;5136101;27;20227;-75
2023/05/01 05:42:57;;;;;;;8.20;6.50;;;9.10;99.90;;;;;;5136817;27;20217;-76
2023/05/01 05:45:25;;;;;;;8.57;6.87;;;9.20;99.90;;;;;;5135662;27;20666;-74
2023/05/01 05:47:53;;;;;;;9.63;6.80;;;9.30;99.90;;;;;;5137568;27;20237;-75
2023/05/01 05:50:21;;;;;;;7.90;6.93;;;9.30;99.90;;;;;;5151029;27;20619;-73
2023/05/01 05:52:50;;;;;;;8.60;7.00;;;9.30;99.90;;;;;;5154730;27;20241;-75
2023/05/01 05:55:18;;;;;;;7.43;6.60;;;9.20;99.90;;;;;;5137026;27;20211;-75
2023/05/01 05:57:46;;;;;;;7.90;6.83;;;9.40;99.90;;;;;;5134284;27;20205;-75
2023/05/01 06:00:17;;;;;;;8.50;6.30;;;9.60;99.90;;;;;;5133796;27;20210;-74
2023/05/01 06:02:45;;;;;;;6.40;5.80;;;9.90;99.90;;;;;;5133721;27;20270;-75
2023/05/01 06:05:13;;;;;;;7.10;6.33;;;10.50;99.90;;;;;;5133929;27;20210;-75
2023/05/01 06:07:42;;;;;;;7.97;6.00;;;10.60;99.90;;;;;;5133842;27;20308;-75
2023/05/01 06:10:11;;;;;;;6.77;5.27;;;11.10;99.90;;;;;;5133532;27;20258;-74
2023/05/01 06:12:39;;;;;;;7.77;5.30;;;12.00;99.90;;;;;;5133011;27;20664;-78
2023/05/01 06:15:19;;;;;;;5.73;5.00;;;12.70;99.90;;;;;;5133623;27;20670;-75
2023/05/01 06:17:47;;;;;;;6.97;5.60;;;13.60;99.90;;;;;;5133990;27;20254;-74
2023/05/01 06:20:15;;;;;;;7.13;5.20;;;13.10;99.90;;;;;;5133668;27;20201;-76
2023/05/01 06:22:43;;;;;;;8.53;5.30;;;13.00;99.90;;;;;;5133641;27;20208;-75
2023/05/01 06:25:12;;;;;;;5.87;5.17;;;12.80;99.90;;;;;;5133365;27;20240;-76
2023/05/01 06:27:40;;;;;;;6.30;5.43;;;13.00;99.90;;;;;;5132787;27;20269;-75
2023/05/01 06:30:09;;;;;;;6.53;5.23;;;13.10;99.90;;;;;;5133290;27;20213;-74
2023/05/01 06:32:40;;;;;;;7.03;5.43;;;12.90;99.90;;;;;;5132656;27;20205;-76
2023/05/01 06:35:09;;;;;;;6.27;5.50;;;12.40;99.90;;;;;;5132838;27;20215;-75
2023/05/01 06:37:37;;;;;;;9.83;5.50;;;12.00;99.90;;;;;;5133033;27;20296;-75
2023/05/01 06:40:07;;;;;;;6.70;5.70;;;11.70;99.90;;;;;;5133032;27;20553;-74
2023/05/01 06:42:35;;;;;;;6.13;5.53;;;11.70;99.90;;;;;;5132559;27;20237;-76
2023/05/01 06:45:04;;;;;;;9.17;5.70;;;11.60;99.90;;;;;;5133489;27;20216;-77
2023/05/01 06:47:32;;;;;;;6.30;5.70;;;11.50;99.90;;;;;;5136015;27;20220;-76
2023/05/01 06:50:01;;;;;;;6.83;5.57;;;11.40;99.90;;;;;;5134254;27;20742;-73
2023/05/01 06:52:32;;;;;;;9.67;5.70;;;11.80;99.90;;;;;;5133018;28;20202;-76
2023/05/01 06:55:00;;;;;;;7.43;6.07;;;11.60;99.90;;;;;;5133441;28;20212;-74
2023/05/01 06:57:28;;;;;;;7.17;5.20;;;11.50;99.90;;;;;;5133058;27;20208;-74
2023/05/01 06:59:56;;;;;;;6.30;5.57;;;11.80;99.90;;;;;;5133317;28;20219;-73
2023/05/01 07:02:24;;;;;;;8.17;5.90;;;11.70;99.90;;;;;;5132769;28;20490;-74
2023/05/01 07:04:53;;;;;;;6.63;5.70;;;12.00;99.90;;;;;;5132743;28;20221;-74
2023/05/01 07:07:23;;;;;;;6.07;5.47;;;12.00;99.90;;;;;;5132782;27;20205;-75
2023/05/01 07:09:51;;;;;;;7.33;5.63;;;12.00;99.90;;;;;;5132666;28;20357;-73
2023/05/01 07:12:19;;;;;;;8.30;5.97;;;11.70;99.90;;;;;;5132419;28;20220;-74
2023/05/01 07:14:47;;;;;;;6.07;5.13;;;11.70;99.90;;;;;;5132697;28;20774;-74
2023/05/01 07:17:15;;;;;;;7.37;5.80;;;11.90;99.90;;;;;;5132947;27;20216;-74
2023/05/01 07:19:43;;;;;;;6.43;5.37;;;12.00;99.90;;;;;;5132911;28;20207;-74
2023/05/01 07:22:11;;;;;;;7.30;5.47;;;11.80;99.90;;;;;;5132534;28;20201;-75
2023/05/01 07:24:40;;;;;;;6.83;5.83;;;11.90;99.90;;;;;;5132686;28;20217;-74
2023/05/01 07:27:08;;;;;;;7.60;5.60;;;12.10;99.90;;;;;;5132829;27;20205;-73
2023/05/01 07:29:38;;;;;;;5.70;5.20;;;12.20;99.90;;;;;;5132832;28;20222;-74
2023/05/01 07:32:07;;;;;;;5.73;5.17;;;12.30;99.90;;;;;;5132775;28;20213;-74
2023/05/01 07:34:35;;;;;;;6.97;5.67;;;12.10;99.90;;;;;;5132649;28;20223;-74
2023/05/01 07:37:03;;;;;;;7.80;5.57;;;12.30;99.90;;;;;;5132680;28;20213;-74
2023/05/01 07:39:31;;;;;;;6.03;5.43;;;12.10;99.90;;;;;;5132626;28;20566;-75
2023/05/01 07:42:01;;;;;;;6.30;5.67;;;12.40;99.90;;;;;;5132988;28;20205;-75
2023/05/01 07:44:29;;;;;;;7.73;5.03;;;12.30;99.90;;;;;;5132685;28;20208;-74
2023/05/01 07:47:03;;;;;;;6.73;5.37;;;12.30;99.90;;;;;;5144224;27;20229;-76
2023/05/01 07:49:36;;;;;;;6.43;5.17;;;12.70;99.90;;;;;;5157453;27;20693;-74
2023/05/01 07:52:04;;;;;;;5.87;5.10;;;13.00;99.90;;;;;;5157086;27;20216;-75
2023/05/01 07:54:32;;;;;;;5.50;5.00;;;13.10;99.90;;;;;;5144775;27;20212;-76
2023/05/01 07:57:03;;;;;;;6.87;5.10;;;13.00;99.90;;;;;;5136387;27;20262;-75
2023/05/01 07:59:31;;;;;;;7.77;5.40;;;13.10;99.90;;;;;;5136029;27;20194;-75
2023/05/01 08:01:59;;;;;;;8.17;5.43;;;13.30;99.90;;;;;;5135851;27;20259;-74
2023/05/01 08:04:28;;;;;;;6.90;5.10;;;13.50;99.90;;;;;;5135700;27;20213;-74
2023/05/01 08:06:56;;;;;;;6.37;5.13;;;13.90;99.90;;;;;;5136295;27;20467;-75
2023/05/01 08:09:24;;;;;;;6.40;5.20;;;14.00;99.90;;;;;;5136213;27;20221;-75
2023/05/01 08:11:52;;;;;;;5.93;4.20;;;14.30;99.90;;;;;;5135143;27;20201;-74
2023/05/01 08:14:21;;;;;;;6.53;4.40;;;14.60;99.90;;;;;;5135900;27;20575;-75
2023/05/01 08:16:54;;;;;;;5.90;4.70;;;15.10;99.90;;;;;;5135595;27;20209;-74
2023/05/01 08:19:22;;;;;;;6.53;4.80;;;14.80;99.90;;;;;;5135689;27;20201;-76
2023/05/01 08:21:50;;;;;;;5.70;4.87;;;15.00;99.90;;;;;;5135324;27;20237;-74
2023/05/01 08:24:18;;;;;;;5.43;4.50;;;14.90;99.90;;;;;;5135603;27;20220;-75
2023/05/01 08:26:47;;;;;;;6.03;4.67;;;14.60;99.90;;;;;;5135737;27;20231;-74
2023/05/01 08:29:15;;;;;;;6.27;5.37;;;14.80;99.90;;;;;;5135053;27;20221;-75
2023/05/01 08:31:45;;;;;;;5.47;4.97;;;14.40;99.90;;;;;;5135004;27;20293;-74
2023/05/01 08:34:13;;;;;;;5.63;4.77;;;14.20;99.90;;;;;;5135546;27;20205;-75
2023/05/01 08:36:41;;;;;;;6.27;4.70;;;14.10;99.90;;;;;;5135696;27;20221;-75
2023/05/01 08:39:09;;;;;;;5.67;4.90;;;14.30;99.90;;;;;;5143092;27;20295;-75
2023/05/01 08:41:38;;;;;;;5.77;4.80;;;14.40;99.90;;;;;;5136538;27;20206;-74
2023/05/01 08:44:08;;;;;;;7.20;5.27;;;14.30;99.90;;;;;;5135190;27;20697;-73
2023/05/01 08:46:45;;;;;;;5.90;5.30;;;14.20;99.90;;;;;;5154555;27;20231;-74
2023/05/01 08:49:15;;;;;;;7.87;5.37;;;14.30;99.90;;;;;;5138081;27;20315;-74
2023/05/01 08:51:46;;;;;;;7.33;5.30;;;14.30;99.90;;;;;;5135109;27;20209;-74
2023/05/01 08:54:15;;;;;;;7.63;5.37;;;14.30;99.90;;;;;;5134919;27;20220;-76
2023/05/01 08:56:44;;;;;;;7.03;5.00;;;14.30;99.90;;;;;;5146967;27;20201;-74
2023/05/01 08:59:14;;;;;;;6.17;5.57;;;14.30;99.90;;;;;;5155020;27;20663;-73
2023/05/01 09:01:45;;;;;;;8.37;5.60;;;14.10;99.90;;;;;;5155746;27;20200;-74
2023/05/01 09:04:16;;;;;;;5.80;5.20;;;14.00;99.90;;;;;;5144902;27;20248;-74
2023/05/01 09:06:44;;;;;;;5.57;5.07;;;13.80;99.90;;;;;;5134548;27;20208;-75
2023/05/01 09:09:12;;;;;;;8.07;5.53;;;13.60;99.90;;;;;;5134914;27;20232;-75
2023/05/01 09:11:43;;;;;;;6.07;5.20;;;13.70;99.90;;;;;;5134902;27;20209;-74
2023/05/01 09:14:11;;;;;;;6.43;5.50;;;13.80;99.90;;;;;;5148914;27;20421;-75
2023/05/01 09:16:40;;;;;;;7.30;5.60;;;14.00;99.90;;;;;;5155498;27;20213;-75
2023/05/01 09:19:10;;;;;;;6.03;5.10;;;14.10;99.90;;;;;;5155400;27;20201;-74
2023/05/01 09:21:38;;;;;;;6.27;5.23;;;14.00;99.90;;;;;;5155003;27;20210;-76
2023/05/01 09:24:07;;;;;;;5.73;5.17;;;14.10;99.90;;;;;;5137522;27;20237;-74
2023/05/01 09:26:39;;;;;;;7.40;5.43;;;14.00;99.90;;;;;;5134810;27;20213;-75
2023/05/01 09:29:09;;;;;;;6.53;5.57;;;14.20;99.90;;;;;;5134526;27;20576;-74
2023/05/01 09:31:37;;;;;;;5.73;5.13;;;14.20;99.90;;;;;;5149191;27;20201;-74
2023/05/01 09:34:07;;;;;;;7.20;5.37;;;14.40;99.90;;;;;;5154643;27;20296;-74
2023/05/01 09:36:36;;;;;;;7.27;5.70;;;14.40;99.90;;;;;;5155215;27;20288;-75
2023/05/01 09:39:05;;;;;;;6.67;4.83;;;14.50;99.90;;;;;;5146982;27;20625;-74
2023/05/01 09:41:33;;;;;;;6.10;5.43;;;14.60;99.90;;;;;;5134019;27;20667;-74
2023/05/01 09:44:01;;;;;;;6.03;5.20;;;14.60;99.90;;;;;;5143083;27;20205;-75
2023/05/01 09:46:42;;;;;;;6.83;5.47;;;14.50;99.90;;;;;;5153279;27;20366;-75
2023/05/01 09:49:10;;;;;;;6.50;5.30;;;14.60;99.90;;;;;;5154789;27;20204;-75
2023/05/01 09:51:40;;;;;;;7.27;5.67;;;14.90;99.90;;;;;;5154645;27;20296;-76
2023/05/01 09:54:18;;;;;;;6.10;5.50;;;14.90;99.90;;;;;;5153308;27;20208;-75
2023/05/01 09:56:48;;;;;;;6.73;5.90;;;15.00;99.90;;;;;;5134104;27;20215;-74
2023/05/01 09:59:16;;;;;;;6.67;5.73;;;15.40;99.90;;;;;;5134466;27;20205;-74
2023/05/01 10:01:46;;;;;;;5.60;5.10;;;15.80;99.90;;;;;;5134243;27;20247;-73
2023/05/01 10:04:15;;;;;;;6.30;5.47;;;16.10;99.90;;;;;;5134277;27;20262;-74
2023/05/01 10:06:44;;;;;;;5.90;5.37;;;16.20;99.90;;;;;;5134207;27;20622;-75
2023/05/01 10:09:27;;;;;;;6.10;5.50;;;16.40;99.90;;;;;;5133184;27;20255;-75
2023/05/01 10:11:57;;;;;;;5.53;5.03;;;16.50;99.90;;;;;;5133170;27;20202;-75
2023/05/01 10:14:28;;;;;;;6.20;5.60;;;16.60;99.90;;;;;;5133823;27;20304;-76
2023/05/01 10:16:56;;;;;;;5.63;5.13;;;16.20;99.90;;;;;;5143256;27;20208;-74
2023/05/01 10:19:25;;;;;;;8.67;5.60;;;16.10;99.90;;;;;;5155212;27;20201;-77
2023/05/01 10:21:58;;;;;;;6.30;5.60;;;16.00;99.90;;;;;;5137053;27;20233;-77
2023/05/01 10:24:26;;;;;;;5.93;5.33;;;15.90;99.90;;;;;;5136358;27;20280;-75
2023/05/01 10:26:55;;;;;;;6.70;5.87;;;15.80;99.90;;;;;;5136160;27;20339;-74
2023/05/01 10:29:27;;;;;;;6.37;4.90;;;15.90;99.90;;;;;;5137712;27;20213;-74
2023/05/01 10:31:56;;;;;;;6.53;5.67;;;15.90;99.90;;;;;;5136344;27;20225;-74
2023/05/01 10:34:26;;;;;;;6.60;5.90;;;16.00;99.90;;;;;;5138368;27;20201;-75
2023/05/01 10:37:00;;;;;;;7.77;5.60;;;15.90;99.90;;;;;;5136366;27;20205;-76
2023/05/01 10:39:33;;;;;;;7.90;5.77;;;15.90;99.90;;;;;;5142783;27;20232;-74
2023/05/01 10:42:03;;;;;;;8.67;5.63;;;15.60;99.90;;;;;;5150972;27;20197;-74
2023/05/01 10:44:33;;;;;;;6.93;6.23;;;15.50;99.90;;;;;;5157819;27;20206;-75
2023/05/01 10:47:36;;;;;;;6.70;6.00;;;15.50;99.90;;;;;;5143903;27;20714;-75
2023/05/01 10:50:06;;;;;;;6.90;5.67;;;15.30;99.90;;;;;;5147226;27;20221;-75
2023/05/01 10:53:13;;;;;;;6.73;6.07;;;15.20;99.90;;;;;;5143349;28;20201;-74
2023/05/01 10:55:44;;;;;;;6.43;5.20;;;14.80;99.90;;;;;;5133296;28;20350;-76
2023/05/01 10:58:13;;;;;;;6.33;5.73;;;14.90;99.90;;;;;;5133242;28;20277;-76
2023/05/01 11:00:41;;;;;;;6.77;6.00;;;14.80;99.90;;;;;;5133449;28;20236;-76
2023/05/01 11:03:39;;;;;;;6.43;5.50;;;14.60;99.90;;;;;;5132844;27;20212;-77
2023/05/01 11:06:08;;;;;;;6.37;5.70;;;14.80;99.90;;;;;;5133091;28;20232;-74
2023/05/01 11:08:37;;;;;;;8.00;6.07;;;14.80;99.90;;;;;;5133135;28;20289;-78
2023/05/01 11:11:43;;;;;;;7.77;6.37;;;14.80;99.90;;;;;;5133136;27;20233;-77
2023/05/01 11:14:12;;;;;;;8.17;6.40;;;14.80;99.90;;;;;;5133117;28;20312;-74
2023/05/01 11:16:41;;;;;;;10.00;6.57;;;15.00;99.90;;;;;;5133333;28;20201;-75
2023/05/01 11:19:12;;;;;;;7.63;6.53;;;15.00;99.90;;;;;;5132672;27;20288;-75
2023/05/01 11:21:40;;;;;;;7.63;6.27;;;15.30;99.90;;;;;;5136112;27;20233;-74
2023/05/01 11:24:09;;;;;;;7.20;6.30;;;15.30;99.90;;;;;;5137043;27;20702;-74
2023/05/01 11:26:41;;;;;;;7.10;6.40;;;15.40;99.90;;;;;;5137067;27;20687;-76
2023/05/01 11:29:10;;;;;;;7.77;6.80;;;15.40;99.90;;;;;;5137188;27;20190;-76
2023/05/01 11:31:40;;;;;;;7.83;6.67;;;15.20;99.90;;;;;;5136974;27;20244;-75
2023/05/01 11:34:08;;;;;;;7.07;6.10;;;15.60;99.90;;;;;;5136948;27;20209;-73
2023/05/01 11:36:48;;;;;;;7.90;5.93;;;15.90;99.90;;;;;;5137214;27;20212;-79
2023/05/01 11:39:16;;;;;;;7.20;6.07;;;16.10;99.90;;;;;;5136938;27;20190;-73
2023/05/01 11:41:44;;;;;;;7.90;6.10;;;16.30;99.90;;;;;;5150360;27;20201;-74
2023/05/01 11:44:15;;;;;;;6.60;5.97;;;16.50;99.90;;;;;;5157607;27;20205;-79
2023/05/01 11:46:44;;;;;;;7.70;6.20;;;16.70;99.90;;;;;;5157564;27;20205;-74
2023/05/01 11:49:13;;;;;;;7.47;6.00;;;16.80;99.90;;;;;;5148697;27;20292;-77
2023/05/01 11:51:41;;;;;;;7.00;6.10;;;16.50;99.90;;;;;;5137075;27;20320;-75
2023/05/01 11:54:11;;;;;;;8.10;6.30;;;16.60;99.90;;;;;;5136758;27;20288;-74
2023/05/01 11:56:42;;;;;;;6.53;5.90;;;17.00;99.90;;;;;;5136787;27;20253;-75
2023/05/01 11:59:12;;;;;;;7.43;5.60;;;17.00;99.90;;;;;;5136777;27;20213;-76
2023/05/01 12:01:43;;;;;;;9.03;5.63;;;16.90;99.90;;;;;;5136086;27;20198;-76
2023/05/01 12:04:22;;;;;;;10.23;6.77;;;16.40;99.90;;;;;;5137537;27;20186;-76
2023/05/01 12:06:51;;;;;;;10.13;8.23;;;16.20;99.90;;;;;;5138966;27;20231;-77
2023/05/01 12:09:21;;;;;;;8.20;7.30;;;16.10;99.90;;;;;;5136158;27;20262;-77
2023/05/01 12:11:51;;;;;;;7.83;6.93;;;16.10;99.90;;;;;;5136399;27;20593;-78
2023/05/01 12:14:21;;;;;;;6.40;5.80;;;16.00;99.90;;;;;;5136440;27;20213;-75
2023/05/01 12:16:50;;;;;;;6.50;5.90;;;15.90;99.90;;;;;;5136302;27;20207;-77
2023/05/01 12:19:21;;;;;;;6.40;5.80;;;15.90;99.90;;;;;;5154547;27;20200;-76
2023/05/01 12:22:05;;;;;;;7.23;6.00;;;15.70;99.90;;;;;;5156343;27;20185;-76
2023/05/01 12:24:33;;;;;;;6.97;5.93;;;15.70;99.90;;;;;;5138344;27;20208;-77
2023/05/01 12:27:02;;;;;;;6.90;6.20;;;15.60;99.90;;;;;;5141526;27;20309;-75
2023/05/01 12:29:40;;;;;;;6.63;5.97;;;15.40;99.90;;;;;;5136364;27;20667;-74
2023/05/01 12:32:08;;;;;;;7.10;5.90;;;15.70;99.90;;;;;;5136256;27;20274;-75
2023/05/01 12:34:38;;;;;;;6.90;6.20;;;15.70;99.90;;;;;;5135954;27;20304;-75
2023/05/01 12:37:06;;;;;;;6.90;6.13;;;15.80;99.90;;;;;;5151809;27;20208;-76
2023/05/01 12:39:38;;;;;;;7.57;6.50;;;15.60;99.90;;;;;;5156622;27;20208;-76
2023/05/01 12:42:13;;;;;;;6.13;5.40;;;15.40;99.90;;;;;;5156222;27;20288;-77
2023/05/01 12:44:42;;;;;;;7.03;6.33;;;15.40;99.90;;;;;;5146657;27;20207;-76
2023/05/01 12:47:12;;;;;;;7.73;6.20;;;15.10;99.90;;;;;;5137701;27;20733;-75
2023/05/01 12:49:42;;;;;;;7.23;6.07;;;15.10;99.90;;;;;;5135823;27;20221;-76
2023/05/01 12:52:10;;;;;;;6.40;5.80;;;15.00;99.90;;;;;;5137885;27;20225;-75
2023/05/01 12:54:40;;;;;;;7.10;6.40;;;15.00;99.90;;;;;;5156315;27;20233;-74
2023/05/01 12:57:10;;;;;;;7.87;6.47;;;14.90;99.90;;;;;;5156218;27;20579;-76
2023/05/01 12:59:40;;;;;;;8.10;6.80;;;15.20;99.90;;;;;;5156327;27;20200;-74
2023/05/01 13:02:11;;;;;;;7.77;6.97;;;14.90;99.90;;;;;;5135293;27;20211;-75
2023/05/01 13:04:40;;;;;;;6.60;5.77;;;14.90;99.90;;;;;;5134995;27;20217;-76
2023/05/01 13:07:13;;;;;;;8.33;7.37;;;15.10;99.90;;;;;;5134968;27;20728;-77